createdAt,value
2019-02-19T00:02:19.875Z,101017.31
2019-02-19T00:04:51.524Z,101015.27
2019-02-19T00:07:23.222Z,101014.77
2019-02-19T00:09:55.800Z,101020.58
2019-02-19T00:12:27.500Z,101009.45
2019-02-19T00:15:07.730Z,101007.27
2019-02-19T00:17:32.471Z,101009.11
2019-02-19T00:20:04.150Z,101006.87
2019-02-19T00:22:36.840Z,100996.59
2019-02-19T00:25:08.467Z,101006.00
2019-02-19T00:27:40.073Z,101001.17
2019-02-19T00:30:11.681Z,100995.50
2019-02-19T00:32:43.354Z,100995.81
2019-02-19T00:35:15.033Z,100996.80
2019-02-19T00:37:46.616Z,100995.34
2019-02-19T00:40:18.221Z,100986.83
2019-02-19T00:42:49.879Z,100982.27
2019-02-19T00:45:21.479Z,100982.61
2019-02-19T00:47:53.102Z,100978.32
2019-02-19T00:50:24.688Z,100977.77
2019-02-19T00:52:56.350Z,100974.36
2019-02-19T00:55:27.932Z,100976.09
2019-02-19T00:57:59.547Z,100969.70
2019-02-19T01:00:31.132Z,100974.45
2019-02-19T01:03:02.797Z,100974.05
2019-02-19T01:05:34.469Z,100965.68
2019-02-19T01:08:06.088Z,100962.19
2019-02-19T01:10:37.753Z,100961.38
2019-02-19T01:13:09.664Z,100953.92
2019-02-19T01:15:41.355Z,100957.67
2019-02-19T01:18:13.142Z,100953.38
2019-02-19T01:20:44.730Z,100948.34
2019-02-19T01:23:16.431Z,100949.67
2019-02-19T01:25:48.986Z,100947.42
2019-02-19T01:28:20.601Z,100946.20
2019-02-19T01:30:52.199Z,100934.95
2019-02-19T01:33:23.868Z,100937.71
2019-02-19T01:35:55.496Z,100930.33
2019-02-19T01:38:27.125Z,100923.89
2019-02-19T01:40:58.734Z,100917.02
2019-02-19T01:43:30.351Z,100914.77
2019-02-19T01:46:01.962Z,100910.29
2019-02-19T01:48:33.623Z,100905.20
2019-02-19T01:51:05.220Z,100904.87
2019-02-19T01:53:36.903Z,100903.73
2019-02-19T01:56:08.520Z,100906.62
2019-02-19T01:58:40.141Z,100904.72
2019-02-19T02:01:12.047Z,100897.55
2019-02-19T02:03:43.997Z,100890.34
2019-02-19T02:06:15.909Z,100890.03
2019-02-19T02:08:49.120Z,100889.89
2019-02-19T02:11:20.705Z,100885.52
2019-02-19T02:13:53.292Z,100879.32
2019-02-19T02:16:24.892Z,100881.60
2019-02-19T02:18:56.566Z,100878.23
2019-02-19T02:21:28.161Z,100877.92
2019-02-19T02:23:59.765Z,100878.37
2019-02-19T02:26:31.510Z,100870.79
2019-02-19T02:29:03.175Z,100874.50
2019-02-19T02:31:34.877Z,100871.74
2019-02-19T02:34:06.600Z,100872.39
2019-02-19T02:36:38.227Z,100874.09
2019-02-19T02:39:09.952Z,100870.72
2019-02-19T02:41:41.597Z,100869.46
2019-02-19T02:44:13.263Z,100867.62
2019-02-19T02:46:44.866Z,100857.63
2019-02-19T02:49:16.473Z,100861.23
2019-02-19T02:51:48.058Z,100854.47
2019-02-19T02:54:19.690Z,100856.27
2019-02-19T02:56:51.285Z,100858.31
2019-02-19T02:59:22.898Z,100864.34
2019-02-19T03:01:54.505Z,100864.59
2019-02-19T03:04:26.124Z,100870.98
2019-02-19T03:07:16.625Z,100871.23
2019-02-19T03:09:48.254Z,100873.70
2019-02-19T03:12:19.920Z,100869.54
2019-02-19T03:14:51.524Z,100861.18
2019-02-19T03:17:23.123Z,100861.94
2019-02-19T03:19:54.735Z,100861.69
2019-02-19T03:22:26.341Z,100856.64
2019-02-19T03:24:58.007Z,100862.12
2019-02-19T03:27:29.656Z,100849.52
2019-02-19T03:30:01.263Z,100844.72
2019-02-19T03:32:33.321Z,100843.71
2019-02-19T03:35:05.060Z,100835.61
2019-02-19T03:37:36.742Z,100837.65
2019-02-19T03:40:08.664Z,100828.03
2019-02-19T03:42:40.422Z,100831.91
2019-02-19T03:45:12.477Z,100833.17
2019-02-19T03:47:44.239Z,100833.52
2019-02-19T03:50:16.219Z,100828.31
2019-02-19T03:52:47.821Z,100836.80
2019-02-19T03:55:19.435Z,100832.80
2019-02-19T03:57:51.127Z,100830.75
2019-02-19T04:00:22.721Z,100828.17
2019-02-19T04:02:54.339Z,100826.53
2019-02-19T04:05:26.065Z,100819.47
2019-02-19T04:07:57.733Z,100821.48
2019-02-19T04:10:29.362Z,100824.01
2019-02-19T04:13:00.944Z,100819.44
2019-02-19T04:15:32.639Z,100816.91
2019-02-19T04:18:04.293Z,100815.08
2019-02-19T04:20:35.876Z,100812.94
2019-02-19T04:23:07.545Z,100809.03
2019-02-19T04:25:39.265Z,100806.25
2019-02-19T04:28:11.121Z,100804.39
2019-02-19T04:30:43.131Z,100807.28
2019-02-19T04:33:14.733Z,100805.61
2019-02-19T04:35:46.388Z,100796.06
2019-02-19T04:38:17.983Z,100805.40
2019-02-19T04:40:49.633Z,100801.66
2019-02-19T04:43:21.294Z,100792.64
2019-02-19T04:45:52.906Z,100797.94
2019-02-19T04:48:24.494Z,100798.16
2019-02-19T04:50:56.178Z,100794.90
2019-02-19T04:53:27.784Z,100791.68
2019-02-19T04:55:59.386Z,100786.28
2019-02-19T04:58:31.046Z,100788.18
2019-02-19T05:01:02.718Z,100791.75
2019-02-19T05:03:34.319Z,100793.67
2019-02-19T05:06:05.941Z,100781.66
2019-02-19T05:08:38.598Z,100783.48
2019-02-19T05:11:10.295Z,100784.50
2019-02-19T05:13:43.205Z,100778.23
2019-02-19T05:16:14.829Z,100778.33
2019-02-19T05:18:46.423Z,100784.03
2019-02-19T05:21:18.045Z,100779.53
2019-02-19T05:23:49.702Z,100776.56
2019-02-19T05:26:21.392Z,100776.34
2019-02-19T05:28:53.009Z,100770.89
2019-02-19T05:31:24.643Z,100779.56
2019-02-19T05:33:56.319Z,100771.99
2019-02-19T05:36:28.108Z,100774.07
2019-02-19T05:38:59.835Z,100770.44
2019-02-19T05:41:31.490Z,100770.24
2019-02-19T05:44:03.166Z,100767.97
2019-02-19T05:46:34.775Z,100767.70
2019-02-19T05:49:06.378Z,100773.09
2019-02-19T05:51:37.998Z,100778.36
2019-02-19T05:54:09.671Z,100771.77
2019-02-19T05:56:41.469Z,100779.53
2019-02-19T05:59:13.230Z,100777.07
2019-02-19T06:01:44.821Z,100783.22
2019-02-19T06:04:16.526Z,100783.59
2019-02-19T06:06:48.184Z,100787.25
2019-02-19T06:09:19.958Z,100784.80
2019-02-19T06:11:51.577Z,100783.56
2019-02-19T06:14:23.235Z,100783.53
2019-02-19T06:16:58.602Z,100787.59
2019-02-19T06:19:28.191Z,100779.31
2019-02-19T06:21:59.790Z,100785.61
2019-02-19T06:24:31.483Z,100780.63
2019-02-19T06:27:03.101Z,100783.66
2019-02-19T06:29:34.716Z,100787.72
2019-02-19T06:32:06.422Z,100787.84
2019-02-19T06:34:38.030Z,100785.11
2019-02-19T06:37:09.744Z,100793.55
2019-02-19T06:39:41.440Z,100798.67
2019-02-19T06:42:13.365Z,100803.91
2019-02-19T06:44:44.990Z,100798.89
2019-02-19T06:47:16.600Z,100794.66
2019-02-19T06:49:48.274Z,100794.45
2019-02-19T06:52:19.901Z,100792.41
2019-02-19T06:54:51.562Z,100790.41
2019-02-19T06:57:24.164Z,100789.39
2019-02-19T06:59:55.845Z,100791.84
2019-02-19T07:02:58.215Z,100799.14
2019-02-19T07:05:29.880Z,100800.66
2019-02-19T07:08:01.958Z,100799.56
2019-02-19T07:10:33.621Z,100791.52
2019-02-19T07:13:05.300Z,100794.25
2019-02-19T07:15:36.926Z,100796.28
2019-02-19T07:18:08.612Z,100793.70
2019-02-19T07:20:40.493Z,100796.67
2019-02-19T07:23:12.129Z,100793.59
2019-02-19T07:25:43.734Z,100793.45
2019-02-19T07:28:15.343Z,100792.91
2019-02-19T07:30:46.935Z,100792.58
2019-02-19T07:33:18.549Z,100790.84
2019-02-19T07:35:50.209Z,100792.61
2019-02-19T07:38:21.826Z,100787.19
2019-02-19T07:40:53.430Z,100793.96
2019-02-19T07:43:25.043Z,100796.69
2019-02-19T07:45:56.692Z,100793.73
2019-02-19T07:48:28.308Z,100789.92
2019-02-19T07:50:59.894Z,100784.17
2019-02-19T07:53:31.577Z,100790.49
2019-02-19T07:56:03.182Z,100793.24
2019-02-19T07:58:34.815Z,100783.51
2019-02-19T08:01:06.499Z,100784.02
2019-02-19T08:03:38.181Z,100788.97
2019-02-19T08:06:09.769Z,100779.83
2019-02-19T08:08:41.485Z,100783.52
2019-02-19T08:11:13.362Z,100785.78
2019-02-19T08:13:44.970Z,100779.72
2019-02-19T08:16:16.635Z,100778.53
2019-02-19T08:18:48.323Z,100779.20
2019-02-19T08:21:21.615Z,100785.84
2019-02-19T08:23:53.303Z,100785.65
2019-02-19T08:26:24.902Z,100790.48
2019-02-19T08:29:04.221Z,100781.38
2019-02-19T08:31:29.894Z,100781.94
2019-02-19T08:34:01.569Z,100785.83
2019-02-19T08:36:33.241Z,100789.54
2019-02-19T08:39:05.516Z,100787.27
2019-02-19T08:41:37.597Z,100782.27
2019-02-19T08:44:09.548Z,100783.64
2019-02-19T08:46:41.454Z,100772.97
2019-02-19T08:49:13.348Z,100778.63
2019-02-19T08:51:45.031Z,100770.72
2019-02-19T08:54:16.638Z,100778.20
2019-02-19T08:56:48.233Z,100783.75
2019-02-19T08:59:19.842Z,100776.42
2019-02-19T09:01:51.463Z,100776.52
2019-02-19T09:04:23.048Z,100777.48
2019-02-19T09:06:54.713Z,100782.63
2019-02-19T09:09:26.398Z,100769.13
2019-02-19T09:11:58.062Z,100787.01
2019-02-19T09:14:29.689Z,100774.56
2019-02-19T09:17:01.319Z,100784.58
2019-02-19T09:19:32.999Z,100775.52
2019-02-19T09:22:04.668Z,100773.29
2019-02-19T09:24:36.291Z,100772.66
2019-02-19T09:27:07.898Z,100774.94
2019-02-19T09:29:39.617Z,100777.53
2019-02-19T09:32:11.434Z,100778.00
2019-02-19T09:34:43.294Z,100777.84
2019-02-19T09:37:14.880Z,100781.39
2019-02-19T09:39:46.496Z,100779.59
2019-02-19T09:42:18.154Z,100794.15
2019-02-19T09:44:49.822Z,100794.91
2019-02-19T09:47:21.432Z,100792.76
2019-02-19T09:49:53.049Z,100795.66
2019-02-19T09:52:24.645Z,100794.56
2019-02-19T09:54:56.249Z,100776.11
2019-02-19T09:57:27.911Z,100786.05
2019-02-19T09:59:59.526Z,100789.27
2019-02-19T10:02:31.229Z,100787.30
2019-02-19T10:05:03.134Z,100789.77
2019-02-19T10:07:34.787Z,100799.17
2019-02-19T10:10:08.128Z,100789.98
2019-02-19T10:12:39.783Z,100786.05
2019-02-19T10:15:12.372Z,100793.48
2019-02-19T10:17:44.057Z,100789.36
2019-02-19T10:20:16.065Z,100788.05
2019-02-19T10:22:47.731Z,100790.41
2019-02-19T10:25:19.422Z,100788.02
2019-02-19T10:27:51.308Z,100790.72
2019-02-19T10:30:22.941Z,100785.56
2019-02-19T10:32:54.615Z,100780.77
2019-02-19T10:35:26.304Z,100777.16
2019-02-19T10:37:57.970Z,100790.77
2019-02-19T10:40:29.592Z,100776.41
2019-02-19T10:43:01.195Z,100781.57
2019-02-19T10:45:32.811Z,100786.97
2019-02-19T10:48:04.473Z,100787.94
2019-02-19T10:50:36.164Z,100784.73
2019-02-19T10:53:07.767Z,100780.41
2019-02-19T10:55:39.601Z,100781.66
2019-02-19T10:58:11.628Z,100777.34
2019-02-19T11:00:43.559Z,100774.17
2019-02-19T11:03:15.170Z,100765.83
2019-02-19T11:05:46.886Z,100761.78
2019-02-19T11:08:18.496Z,100758.74
2019-02-19T11:10:51.100Z,100753.85
2019-02-19T11:13:22.775Z,100760.36
2019-02-19T11:15:54.381Z,100754.71
2019-02-19T11:18:28.672Z,100752.61
2019-02-19T11:21:00.518Z,100747.23
2019-02-19T11:23:33.737Z,100750.55
2019-02-19T11:26:05.509Z,100745.14
2019-02-19T11:28:37.128Z,100741.35
2019-02-19T11:31:08.762Z,100745.66
2019-02-19T11:33:40.583Z,100747.12
2019-02-19T11:36:12.220Z,100755.09
2019-02-19T11:38:43.823Z,100762.31
2019-02-19T11:41:15.549Z,100756.67
2019-02-19T11:43:47.172Z,100767.09
2019-02-19T11:46:18.785Z,100760.97
2019-02-19T11:48:50.391Z,100754.23
2019-02-19T11:51:21.990Z,100751.28
2019-02-19T11:53:53.602Z,100739.52
2019-02-19T11:56:25.234Z,100746.98
2019-02-19T11:58:56.904Z,100753.72
2019-02-19T12:01:28.557Z,100749.56
2019-02-19T12:04:01.627Z,100748.95
2019-02-19T12:06:33.305Z,100731.68
2019-02-19T12:09:05.712Z,100745.66
2019-02-19T12:11:37.799Z,100736.08
2019-02-19T12:14:09.616Z,100730.56
2019-02-19T12:16:41.514Z,100736.45
2019-02-19T12:19:13.393Z,100751.17
2019-02-19T12:21:46.401Z,100745.76
2019-02-19T12:24:18.002Z,100742.22
2019-02-19T12:26:49.687Z,100744.91
2019-02-19T12:29:21.291Z,100735.97
2019-02-19T12:31:52.979Z,100739.63
2019-02-19T12:34:24.584Z,100737.41
2019-02-19T12:36:56.306Z,100740.48
2019-02-19T12:39:27.991Z,100741.10
2019-02-19T12:41:59.628Z,100741.00
2019-02-19T12:44:31.303Z,100744.05
2019-02-19T12:47:02.962Z,100749.44
2019-02-19T12:49:34.639Z,100754.70
2019-02-19T12:52:06.268Z,100746.14
2019-02-19T12:54:37.875Z,100747.86
2019-02-19T12:57:09.654Z,100754.59
2019-02-19T12:59:41.508Z,100762.55
2019-02-19T13:02:13.446Z,100758.98
2019-02-19T13:04:45.047Z,100757.17
2019-02-19T13:07:16.760Z,100751.17
2019-02-19T13:09:48.373Z,100747.59
2019-02-19T13:12:19.991Z,100745.51
2019-02-19T13:14:51.615Z,100750.54
2019-02-19T13:17:23.300Z,100755.22
2019-02-19T13:19:55.002Z,100749.69
2019-02-19T13:22:26.635Z,100759.37
2019-02-19T13:24:58.258Z,100757.89
2019-02-19T13:27:29.867Z,100765.87
2019-02-19T13:30:01.488Z,100762.17
2019-02-19T13:32:33.162Z,100763.29
2019-02-19T13:35:08.923Z,100758.11
2019-02-19T13:37:41.772Z,100760.44
2019-02-19T13:40:14.153Z,100768.15
2019-02-19T13:42:45.968Z,100769.36
2019-02-19T13:45:17.718Z,100768.48
2019-02-19T13:47:49.440Z,100774.42
2019-02-19T13:50:21.534Z,100769.92
2019-02-19T13:53:17.938Z,100771.95
2019-02-19T13:55:52.230Z,100772.46
2019-02-19T13:58:23.937Z,100781.52
2019-02-19T14:00:55.542Z,100783.47
2019-02-19T14:03:27.210Z,100773.80
2019-02-19T14:05:58.797Z,100777.65
2019-02-19T14:08:30.410Z,100781.08
2019-02-19T14:11:02.009Z,100781.14
2019-02-19T14:13:33.711Z,100775.46
2019-02-19T14:16:18.158Z,100777.86
2019-02-19T14:18:57.874Z,100777.18
2019-02-19T14:21:51.009Z,100776.86
2019-02-19T14:24:38.330Z,100780.90
2019-02-19T14:27:31.823Z,100785.82
2019-02-19T14:30:21.574Z,100782.26
2019-02-19T14:33:09.221Z,100796.80
2019-02-19T14:35:58.070Z,100804.34
2019-02-19T14:39:03.823Z,100789.17
2019-02-19T14:41:49.313Z,100812.00
2019-02-19T14:44:41.196Z,100798.25
2019-02-19T14:47:34.700Z,100802.97
2019-02-19T14:50:35.526Z,100795.58
2019-02-19T14:53:34.766Z,100805.20
2019-02-19T14:56:34.078Z,100796.48
2019-02-19T14:59:23.237Z,100794.70
2019-02-19T15:02:12.255Z,100794.17
2019-02-19T15:05:08.460Z,100788.48
2019-02-19T15:08:04.966Z,100787.36
2019-02-19T15:11:03.660Z,100779.67
2019-02-19T15:13:48.286Z,100774.08
2019-02-19T15:16:37.463Z,100762.20
2019-02-19T15:19:20.175Z,100763.70
2019-02-19T15:22:16.678Z,100767.16
2019-02-19T15:25:09.969Z,100770.44
2019-02-19T15:28:00.798Z,100784.47
2019-02-19T15:31:00.269Z,100789.19
2019-02-19T15:34:08.980Z,100781.47
2019-02-19T15:36:58.494Z,100797.84
2019-02-19T15:40:03.882Z,100792.26
2019-02-19T15:42:54.002Z,100773.95
2019-02-19T15:45:43.745Z,100772.61
2019-02-19T15:48:32.859Z,100780.17
2019-02-19T15:51:17.890Z,100764.33
2019-02-19T15:54:07.131Z,100776.73
2019-02-19T15:56:57.347Z,100788.28
2019-02-19T15:59:46.595Z,100783.03
2019-02-19T16:02:39.935Z,100785.67
2019-02-19T16:05:30.964Z,100785.67
2019-02-19T16:08:24.045Z,100780.43
2019-02-19T16:11:21.656Z,100785.22
2019-02-19T16:14:02.557Z,100788.02
2019-02-19T16:16:43.763Z,100783.12
2019-02-19T16:19:32.981Z,100792.43
2019-02-19T16:22:20.586Z,100793.11
2019-02-19T16:25:09.725Z,100798.80
2019-02-19T16:28:18.642Z,100801.44
2019-02-19T16:31:09.236Z,100796.87
2019-02-19T16:34:08.672Z,100798.41
2019-02-19T16:36:49.132Z,100813.80
2019-02-19T16:39:38.268Z,100822.06
2019-02-19T16:42:27.035Z,100825.27
2019-02-19T16:45:26.617Z,100830.44
2019-02-19T16:48:15.583Z,100828.53
2019-02-19T16:51:12.207Z,100837.27
2019-02-19T16:54:02.795Z,100832.94
2019-02-19T16:56:56.226Z,100836.14
2019-02-19T16:59:50.474Z,100831.86
2019-02-19T17:02:43.865Z,100839.15
2019-02-19T17:05:34.638Z,100833.22
2019-02-19T17:08:15.550Z,100837.63
2019-02-19T17:11:16.078Z,100839.56
2019-02-19T17:14:07.134Z,100843.98
2019-02-19T17:16:54.419Z,100849.27
2019-02-19T17:19:56.843Z,100853.23
2019-02-19T17:22:40.823Z,100853.23
2019-02-19T17:25:37.372Z,100854.00
2019-02-19T17:28:25.687Z,100849.59
2019-02-19T17:31:17.837Z,100852.47
2019-02-19T17:34:11.597Z,100847.34
2019-02-19T17:37:04.887Z,100860.49
2019-02-19T17:39:59.536Z,100858.39
2019-02-19T17:42:51.636Z,100860.61
2019-02-19T17:45:38.502Z,100858.69
2019-02-19T17:48:27.623Z,100857.55
2019-02-19T17:51:14.779Z,100859.35
2019-02-19T17:54:08.004Z,100860.99
2019-02-19T17:57:13.454Z,100861.84
2019-02-19T18:00:04.728Z,100864.94
2019-02-19T18:03:10.107Z,100867.81
2019-02-19T18:06:08.653Z,100864.64
2019-02-19T18:09:01.878Z,100862.06
2019-02-19T18:11:52.799Z,100863.02
2019-02-19T18:14:44.329Z,100861.19
2019-02-19T18:17:29.437Z,100858.03
2019-02-19T18:20:01.247Z,100862.44
2019-02-19T18:22:34.656Z,100853.06
2019-02-19T18:25:07.168Z,100858.16
2019-02-19T18:27:38.862Z,100855.47
2019-02-19T18:30:10.489Z,100857.20
2019-02-19T18:32:42.166Z,100856.32
2019-02-19T18:35:14.397Z,100852.95
2019-02-19T18:37:46.227Z,100845.79
2019-02-19T18:40:18.163Z,100855.17
2019-02-19T18:42:50.146Z,100853.25
2019-02-19T18:45:22.565Z,100849.89
2019-02-19T18:47:54.228Z,100847.78
2019-02-19T18:50:26.398Z,100854.78
2019-02-19T18:52:58.510Z,100849.62
2019-02-19T18:55:33.423Z,100860.92
2019-02-19T18:58:05.440Z,100856.98
2019-02-19T19:00:37.120Z,100857.85
2019-02-19T19:03:08.996Z,100850.34
2019-02-19T19:05:40.840Z,100847.89
2019-02-19T19:08:12.665Z,100841.57
2019-02-19T19:10:44.562Z,100849.39
2019-02-19T19:13:16.353Z,100849.31
2019-02-19T19:15:48.322Z,100848.93
2019-02-19T19:18:21.205Z,100841.73
2019-02-19T19:20:55.654Z,100840.80
2019-02-19T19:23:28.018Z,100838.89
2019-02-19T19:25:59.714Z,100842.69
2019-02-19T19:28:31.612Z,100844.25
2019-02-19T19:31:03.603Z,100857.09
2019-02-19T19:33:35.920Z,100852.95
2019-02-19T19:36:07.871Z,100859.77
2019-02-19T19:38:39.687Z,100850.95
2019-02-19T19:41:12.782Z,100859.49
2019-02-19T19:43:44.585Z,100855.66
2019-02-19T19:46:16.548Z,100857.58
2019-02-19T19:48:49.454Z,100852.22
2019-02-19T19:51:21.509Z,100851.83
2019-02-19T19:53:53.848Z,100849.23
2019-02-19T19:56:27.102Z,100849.05
2019-02-19T19:58:58.924Z,100845.59
2019-02-19T20:01:32.053Z,100839.73
2019-02-19T20:04:04.584Z,100832.27
2019-02-19T20:06:36.722Z,100823.95
2019-02-19T20:09:08.788Z,100831.05
2019-02-19T20:11:42.049Z,100849.23
2019-02-19T20:14:14.364Z,100844.06
2019-02-19T20:16:46.319Z,100849.61
2019-02-19T20:19:18.947Z,100838.78
2019-02-19T20:21:51.087Z,100844.14
2019-02-19T20:24:23.545Z,100842.15
2019-02-19T20:26:56.285Z,100845.32
2019-02-19T20:29:28.944Z,100829.42
2019-02-19T20:32:01.052Z,100836.88
2019-02-19T20:34:32.958Z,100835.66
2019-02-19T20:37:05.065Z,100838.05
2019-02-19T20:39:37.746Z,100836.03
2019-02-19T20:42:10.913Z,100836.22
2019-02-19T20:44:44.063Z,100831.61
2019-02-19T20:47:16.591Z,100829.67
2019-02-19T20:49:48.243Z,100826.53
2019-02-19T20:52:20.546Z,100834.44
2019-02-19T20:54:52.248Z,100826.53
2019-02-19T20:57:24.307Z,100830.05
2019-02-19T20:59:56.021Z,100841.34
2019-02-19T21:02:30.490Z,100836.84
2019-02-19T21:05:02.279Z,100848.31
2019-02-19T21:07:35.518Z,100834.73
2019-02-19T21:10:09.705Z,100846.47
2019-02-19T21:12:44.785Z,100846.29
2019-02-19T21:15:16.576Z,100846.50
2019-02-19T21:17:48.856Z,100850.51
2019-02-19T21:20:22.106Z,100853.96
2019-02-19T21:22:55.100Z,100850.11
2019-02-19T21:25:31.056Z,100863.13
2019-02-19T21:28:00.771Z,100862.17
2019-02-19T21:30:32.866Z,100856.81
2019-02-19T21:33:05.167Z,100859.75
2019-02-19T21:35:37.297Z,100855.84
2019-02-19T21:38:09.323Z,100849.70
2019-02-19T21:40:41.078Z,100845.48
2019-02-19T21:43:12.839Z,100856.20
2019-02-19T21:45:44.605Z,100850.84
2019-02-19T21:48:17.837Z,100851.02
2019-02-19T21:50:51.159Z,100853.70
2019-02-19T21:53:23.509Z,100855.42
2019-02-19T21:55:55.200Z,100855.21
2019-02-19T21:58:26.941Z,100849.58
2019-02-19T22:00:59.228Z,100849.78
2019-02-19T22:03:31.258Z,100850.03
2019-02-19T22:06:06.760Z,100851.48
2019-02-19T22:08:39.679Z,100858.52
2019-02-19T22:11:11.368Z,100862.64
2019-02-19T22:13:43.287Z,100866.83
2019-02-19T22:16:14.968Z,100871.05
2019-02-19T22:18:46.767Z,100876.02
2019-02-19T22:21:37.394Z,100881.55
2019-02-19T22:24:09.506Z,100890.28
2019-02-19T22:26:41.240Z,100881.80
2019-02-19T22:29:12.938Z,100882.47
2019-02-19T22:31:44.711Z,100890.87
2019-02-19T22:34:16.908Z,100900.32
2019-02-19T22:36:50.136Z,100903.56
2019-02-19T22:39:21.828Z,100908.13
2019-02-19T22:41:53.510Z,100899.71
2019-02-19T22:44:25.190Z,100903.47
2019-02-19T22:46:58.712Z,100913.83
2019-02-19T22:49:30.396Z,100910.83
2019-02-19T22:52:02.063Z,100912.66
2019-02-19T22:54:43.993Z,100907.09
2019-02-19T22:57:16.386Z,100915.50
2019-02-19T22:59:48.043Z,100918.84
2019-02-19T23:02:24.106Z,100919.42
2019-02-19T23:04:56.376Z,100922.06
2019-02-19T23:07:28.140Z,100919.33
2019-02-19T23:10:01.300Z,100917.83
2019-02-19T23:12:34.263Z,100914.38
2019-02-19T23:15:06.130Z,100922.09
2019-02-19T23:17:38.355Z,100919.91
2019-02-19T23:20:10.022Z,100924.77
2019-02-19T23:22:41.768Z,100922.88
2019-02-19T23:25:14.048Z,100930.36
2019-02-19T23:27:47.120Z,100934.38
2019-02-19T23:30:18.785Z,100930.49
2019-02-19T23:32:50.451Z,100928.48
2019-02-19T23:35:38.729Z,100935.16
2019-02-19T23:38:10.394Z,100937.98
2019-02-19T23:40:42.050Z,100940.95
2019-02-19T23:43:13.632Z,100931.15
2019-02-19T23:45:45.469Z,100938.06
2019-02-19T23:48:17.119Z,100939.53
2019-02-19T23:50:48.783Z,100932.59
2019-02-19T23:53:20.439Z,100935.50
2019-02-19T23:55:52.012Z,100933.51
2019-02-19T23:58:23.665Z,100938.30
